createdAt,value
2023-02-11T00:01:10.450Z,5.90
2023-02-11T00:03:38.677Z,5.85
2023-02-11T00:08:54.921Z,6.00
2023-02-11T00:11:25.428Z,5.92
2023-02-11T00:13:53.153Z,6.05
2023-02-11T00:16:22.150Z,6.16
2023-02-11T00:21:43.935Z,6.20
2023-02-11T00:24:11.399Z,6.12
2023-02-11T00:26:40.149Z,6.24
2023-02-11T00:29:07.813Z,6.14
2023-02-11T00:31:35.804Z,6.02
2023-02-11T00:34:06.039Z,5.98
2023-02-11T00:36:33.572Z,6.05
2023-02-11T00:39:01.260Z,6.29
2023-02-11T00:41:28.974Z,6.32
2023-02-11T00:43:57.838Z,6.33
2023-02-11T00:46:25.371Z,6.41
2023-02-11T00:48:54.886Z,6.23
2023-02-11T00:51:22.340Z,6.31
2023-02-11T00:56:52.431Z,6.16
2023-02-11T00:59:21.203Z,6.27
2023-02-11T01:01:48.738Z,6.08
2023-02-11T01:04:16.207Z,6.06
2023-02-11T01:06:43.798Z,5.96
2023-02-11T01:09:35.231Z,6.09
2023-02-11T01:12:02.686Z,5.94
2023-02-11T01:14:31.470Z,6.12
2023-02-11T01:16:58.897Z,6.12
2023-02-11T01:19:26.349Z,6.03
2023-02-11T01:21:53.768Z,5.88
2023-02-11T01:27:25.403Z,5.89
2023-02-11T01:29:54.187Z,6.06
2023-02-11T01:32:21.664Z,5.96
2023-02-11T01:34:49.081Z,5.83
2023-02-11T01:37:16.514Z,5.79
2023-02-11T01:39:43.967Z,5.88
2023-02-11T01:42:16.993Z,5.81
2023-02-11T01:44:44.507Z,6.00
2023-02-11T01:47:13.281Z,5.81
2023-02-11T01:49:43.090Z,5.92
2023-02-11T01:52:13.046Z,5.87
2023-02-11T01:55:01.797Z,5.81
2023-02-11T01:57:32.500Z,5.80
2023-02-11T02:00:05.065Z,5.99
2023-02-11T02:02:46.692Z,6.06
2023-02-11T02:05:21.180Z,5.98
2023-02-11T02:07:55.390Z,5.94
2023-02-11T02:13:11.793Z,5.97
2023-02-11T02:15:41.410Z,5.86
2023-02-11T02:18:20.604Z,5.99
2023-02-11T02:20:56.121Z,5.99
2023-02-11T02:23:30.355Z,6.15
2023-02-11T02:26:36.095Z,5.94
2023-02-11T02:29:45.945Z,5.84
2023-02-11T02:32:38.522Z,5.92
2023-02-11T02:35:12.996Z,5.88
2023-02-11T02:37:42.994Z,5.60
2023-02-11T02:40:13.412Z,5.78
2023-02-11T02:42:41.304Z,5.74
2023-02-11T02:45:10.336Z,5.87
2023-02-11T02:47:39.103Z,5.63
2023-02-11T02:50:08.086Z,5.69
2023-02-11T02:52:39.184Z,5.71
2023-02-11T02:55:35.421Z,5.71
2023-02-11T02:58:17.499Z,5.63
2023-02-11T03:00:54.544Z,5.67
2023-02-11T03:03:30.471Z,5.78
2023-02-11T03:06:02.124Z,5.72
2023-02-11T03:11:29.937Z,5.66
2023-02-11T03:13:57.839Z,5.67
2023-02-11T03:16:27.395Z,5.66
2023-02-11T03:19:00.384Z,5.78
2023-02-11T03:21:28.109Z,5.67
2023-02-11T03:23:56.626Z,5.72
2023-02-11T03:26:26.861Z,5.73
2023-02-11T03:28:58.343Z,5.45
2023-02-11T03:31:30.430Z,5.56
2023-02-11T03:34:03.503Z,5.66
2023-02-11T03:36:35.463Z,5.45
2023-02-11T03:39:04.758Z,5.66
2023-02-11T03:41:32.787Z,5.52
2023-02-11T03:44:00.799Z,5.66
2023-02-11T03:46:31.761Z,5.64
2023-02-11T03:49:04.245Z,5.67
2023-02-11T03:51:33.160Z,5.56
2023-02-11T03:54:03.281Z,5.39
2023-02-11T03:56:35.739Z,5.69
2023-02-11T03:59:03.308Z,5.69
2023-02-11T04:01:30.957Z,5.72
2023-02-11T04:03:58.391Z,5.66
2023-02-11T04:06:27.112Z,5.63
2023-02-11T04:08:54.771Z,5.64
2023-02-11T04:14:20.391Z,5.74
2023-02-11T04:16:47.826Z,5.68
2023-02-11T04:19:15.271Z,5.66
2023-02-11T04:21:44.007Z,5.65
2023-02-11T04:24:11.451Z,5.66
2023-02-11T04:26:38.847Z,5.74
2023-02-11T04:29:06.327Z,5.60
2023-02-11T04:31:33.816Z,5.64
2023-02-11T04:37:04.765Z,5.61
2023-02-11T04:39:32.197Z,5.60
2023-02-11T04:41:59.628Z,5.66
2023-02-11T04:44:27.062Z,5.58
2023-02-11T04:46:54.517Z,5.69
2023-02-11T04:49:21.895Z,5.71
2023-02-11T04:51:49.748Z,5.55
2023-02-11T04:54:19.833Z,5.60
2023-02-11T04:56:47.284Z,5.67
2023-02-11T04:59:14.904Z,5.77
2023-02-11T05:01:42.615Z,5.76
2023-02-11T05:04:10.157Z,5.63
2023-02-11T05:06:39.143Z,5.70
2023-02-11T05:12:08.078Z,5.82
2023-02-11T05:14:35.527Z,5.83
2023-02-11T05:17:03.030Z,5.88
2023-02-11T05:19:31.868Z,5.82
2023-02-11T05:22:03.002Z,5.75
2023-02-11T05:24:31.122Z,5.79
2023-02-11T05:26:58.577Z,5.69
2023-02-11T05:29:27.430Z,5.74
2023-02-11T05:31:54.860Z,5.79
2023-02-11T05:34:22.335Z,5.80
2023-02-11T05:36:49.763Z,5.77
2023-02-11T05:39:17.192Z,5.76
2023-02-11T05:41:44.638Z,5.67
2023-02-11T05:44:12.074Z,5.75
2023-02-11T05:46:40.864Z,5.78
2023-02-11T05:49:08.371Z,5.75
2023-02-11T05:54:38.397Z,5.76
2023-02-11T05:57:06.226Z,5.76
2023-02-11T05:59:33.897Z,5.71
2023-02-11T06:02:02.998Z,5.68
2023-02-11T06:07:29.398Z,5.92
2023-02-11T06:09:57.457Z,5.83
2023-02-11T06:15:13.435Z,5.73
2023-02-11T06:17:42.229Z,5.82
2023-02-11T06:20:10.990Z,5.91
2023-02-11T06:22:38.845Z,5.86
2023-02-11T06:25:07.092Z,5.83
2023-02-11T06:27:34.518Z,5.71
2023-02-11T06:30:01.964Z,5.66
2023-02-11T06:32:46.145Z,5.76
2023-02-11T06:35:15.573Z,5.73
2023-02-11T06:37:43.487Z,5.80
2023-02-11T06:40:11.673Z,5.77
2023-02-11T06:42:39.765Z,5.80
2023-02-11T06:45:09.248Z,5.84
2023-02-11T06:47:36.692Z,5.86
2023-02-11T06:50:04.370Z,5.90
2023-02-11T06:52:33.321Z,5.89
2023-02-11T06:55:00.751Z,5.92
2023-02-11T06:57:28.193Z,5.97
2023-02-11T07:02:54.433Z,6.00
2023-02-11T07:05:21.990Z,5.90
2023-02-11T07:07:50.761Z,5.90
2023-02-11T07:10:18.330Z,5.96
2023-02-11T07:12:45.823Z,5.90
2023-02-11T07:15:13.261Z,5.95
2023-02-11T07:20:29.452Z,5.92
2023-02-11T07:22:59.933Z,6.05
2023-02-11T07:25:30.233Z,6.03
2023-02-11T07:27:57.683Z,5.99
2023-02-11T07:33:23.415Z,6.14
2023-02-11T07:35:51.202Z,6.15
2023-02-11T07:38:20.162Z,6.22
2023-02-11T07:40:47.591Z,6.15
2023-02-11T07:43:15.047Z,6.16
2023-02-11T07:45:42.497Z,6.20
2023-02-11T07:48:09.906Z,6.24
2023-02-11T07:50:37.325Z,6.36
2023-02-11T07:53:04.727Z,6.30
2023-02-11T07:55:34.196Z,6.31
2023-02-11T07:58:01.631Z,6.23
2023-02-11T08:00:29.069Z,6.11
2023-02-11T08:05:55.381Z,6.33
2023-02-11T08:08:22.842Z,6.39
2023-02-11T08:10:51.877Z,6.26
2023-02-11T08:13:19.505Z,6.42
2023-02-11T08:15:46.963Z,6.48
2023-02-11T08:18:14.426Z,6.46
2023-02-11T08:20:41.869Z,6.29
2023-02-11T08:23:09.309Z,6.19
2023-02-11T08:25:36.722Z,6.31
2023-02-11T08:28:05.563Z,6.37
2023-02-11T08:30:33.135Z,6.32
2023-02-11T08:33:00.583Z,6.42
2023-02-11T08:35:28.086Z,6.45
2023-02-11T08:37:55.571Z,6.35
2023-02-11T08:40:23.010Z,6.36
2023-02-11T08:45:40.708Z,6.42
2023-02-11T08:48:08.267Z,6.40
2023-02-11T08:50:38.560Z,6.34
2023-02-11T08:53:06.048Z,6.34
2023-02-11T08:55:33.448Z,6.36
2023-02-11T08:58:00.990Z,6.53
2023-02-11T09:00:28.455Z,6.43
2023-02-11T09:02:57.270Z,6.35
2023-02-11T09:05:24.841Z,6.66
2023-02-11T09:08:23.709Z,6.38
2023-02-11T09:10:51.435Z,6.45
2023-02-11T09:13:19.197Z,6.57
2023-02-11T09:15:47.245Z,6.59
2023-02-11T09:21:17.795Z,6.69
2023-02-11T09:23:47.685Z,6.60
2023-02-11T09:26:17.152Z,6.75
2023-02-11T09:28:44.687Z,6.80
2023-02-11T09:31:13.710Z,6.78
2023-02-11T09:33:47.767Z,6.68
2023-02-11T09:36:16.670Z,6.76
2023-02-11T09:38:45.813Z,6.74
2023-02-11T09:41:27.005Z,6.76
2023-02-11T09:46:59.795Z,6.84
2023-02-11T09:49:35.747Z,6.93
2023-02-11T09:52:07.048Z,6.84
2023-02-11T09:54:40.281Z,6.79
2023-02-11T09:57:22.914Z,6.90
2023-02-11T10:03:04.806Z,7.08
2023-02-11T10:05:43.180Z,7.23
2023-02-11T10:08:16.983Z,7.17
2023-02-11T10:10:51.919Z,7.05
2023-02-11T10:13:39.716Z,7.26
2023-02-11T10:19:28.373Z,7.33
2023-02-11T10:22:04.330Z,7.22
2023-02-11T10:24:32.430Z,7.31
2023-02-11T10:27:01.177Z,7.09
2023-02-11T10:32:29.546Z,7.36
2023-02-11T10:38:00.395Z,7.15
2023-02-11T10:40:30.096Z,7.11
2023-02-11T10:43:01.010Z,7.27
2023-02-11T10:45:33.280Z,7.35
2023-02-11T10:48:01.438Z,7.29
2023-02-11T10:50:33.286Z,7.18
2023-02-11T10:53:13.759Z,7.29
2023-02-11T10:55:52.662Z,7.53
2023-02-11T10:58:26.900Z,7.57
2023-02-11T11:00:55.599Z,7.76
2023-02-11T11:03:25.168Z,7.92
2023-02-11T11:05:57.327Z,7.64
2023-02-11T11:11:17.210Z,7.77
2023-02-11T11:13:56.321Z,7.71
2023-02-11T11:19:23.276Z,7.89
2023-02-11T11:21:51.693Z,7.84
2023-02-11T11:27:24.581Z,8.02
2023-02-11T11:29:55.735Z,8.07
2023-02-11T11:32:33.500Z,8.05
2023-02-11T11:35:02.593Z,8.13
2023-02-11T11:40:40.009Z,8.19
2023-02-11T11:43:19.768Z,8.02
2023-02-11T11:45:57.929Z,7.76
2023-02-11T11:48:28.019Z,7.92
2023-02-11T11:50:58.108Z,8.00
2023-02-11T11:53:30.509Z,7.95
2023-02-11T11:56:01.816Z,7.75
2023-02-11T11:58:30.518Z,7.81
2023-02-11T12:04:14.607Z,8.10
2023-02-11T12:06:47.659Z,8.01
2023-02-11T12:09:22.921Z,7.91
2023-02-11T12:12:15.301Z,8.00
2023-02-11T12:17:53.139Z,7.72
2023-02-11T12:23:33.324Z,7.68
2023-02-11T12:26:05.333Z,7.82
2023-02-11T12:28:40.278Z,7.93
2023-02-11T12:31:19.175Z,7.96
2023-02-11T12:34:13.802Z,8.03
2023-02-11T12:36:54.193Z,8.20
2023-02-11T12:39:33.795Z,8.16
2023-02-11T12:42:30.672Z,8.07
2023-02-11T12:45:09.233Z,8.26
2023-02-11T12:47:45.122Z,8.32
2023-02-11T12:53:09.427Z,8.66
2023-02-11T12:55:40.924Z,8.55
2023-02-11T12:58:13.754Z,8.59
2023-02-11T13:00:55.577Z,8.65
2023-02-11T13:03:26.380Z,8.40
2023-02-11T13:05:56.159Z,8.43
2023-02-11T13:08:27.113Z,8.48
2023-02-11T13:10:58.826Z,8.44
2023-02-11T13:13:28.623Z,8.52
2023-02-11T13:16:00.958Z,8.49
2023-02-11T13:18:49.207Z,8.66
2023-02-11T13:24:38.597Z,8.53
2023-02-11T13:27:12.965Z,8.46
2023-02-11T13:30:04.406Z,8.52
2023-02-11T13:33:06.513Z,8.39
2023-02-11T13:35:35.050Z,8.39
2023-02-11T13:38:03.653Z,8.39
2023-02-11T13:40:33.302Z,8.36
2023-02-11T13:46:06.579Z,8.36
2023-02-11T13:48:36.034Z,8.50
2023-02-11T13:51:05.419Z,8.42
2023-02-11T13:53:46.507Z,8.43
2023-02-11T13:56:25.559Z,8.44
2023-02-11T13:58:53.162Z,8.46
2023-02-11T14:01:43.560Z,8.57
2023-02-11T14:04:39.850Z,8.53
2023-02-11T14:07:45.455Z,8.52
2023-02-11T14:10:51.329Z,8.59
2023-02-11T14:13:24.046Z,8.72
2023-02-11T14:15:55.334Z,8.76
2023-02-11T14:18:58.907Z,8.76
2023-02-11T14:21:34.183Z,8.71
2023-02-11T14:24:39.207Z,8.71
2023-02-11T14:27:09.184Z,8.69
2023-02-11T14:29:41.565Z,8.70
2023-02-11T14:32:16.119Z,8.77
2023-02-11T14:34:52.052Z,8.98
2023-02-11T14:37:26.817Z,8.79
2023-02-11T14:40:01.622Z,8.74
2023-02-11T14:42:30.911Z,8.72
2023-02-11T14:45:03.499Z,8.74
2023-02-11T14:47:37.841Z,8.76
2023-02-11T14:50:11.656Z,8.81
2023-02-11T14:52:39.462Z,8.79
2023-02-11T14:55:17.758Z,9.04
2023-02-11T14:57:45.698Z,8.90
2023-02-11T15:00:18.690Z,8.90
2023-02-11T15:02:46.358Z,8.89
2023-02-11T15:05:17.092Z,8.95
2023-02-11T15:07:46.503Z,8.87
2023-02-11T15:13:20.834Z,8.91
2023-02-11T15:15:50.395Z,8.74
2023-02-11T15:18:22.622Z,8.84
2023-02-11T15:20:52.237Z,8.79
2023-02-11T15:23:24.183Z,8.73
2023-02-11T15:25:55.494Z,8.69
2023-02-11T15:31:24.087Z,8.71
2023-02-11T15:33:52.119Z,8.77
2023-02-11T15:36:23.724Z,8.69
2023-02-11T15:39:18.630Z,8.68
2023-02-11T15:41:46.124Z,8.68
2023-02-11T15:44:29.566Z,8.54
2023-02-11T15:46:57.336Z,8.67
2023-02-11T15:49:25.537Z,8.70
2023-02-11T15:51:55.363Z,8.73
2023-02-11T15:54:26.630Z,8.55
2023-02-11T15:56:55.993Z,8.79
2023-02-11T15:59:27.450Z,8.88
2023-02-11T16:01:55.551Z,8.73
2023-02-11T16:04:25.149Z,8.87
2023-02-11T16:06:54.849Z,8.72
2023-02-11T16:09:25.461Z,8.82
2023-02-11T16:11:58.902Z,8.79
2023-02-11T16:14:32.241Z,8.70
2023-02-11T16:17:03.752Z,8.53
2023-02-11T16:19:31.533Z,8.61
2023-02-11T16:23:21.027Z,8.41
2023-02-11T16:25:48.567Z,8.41
2023-02-11T16:28:16.897Z,8.38
2023-02-11T16:30:44.439Z,8.44
2023-02-11T16:36:16.991Z,8.48
2023-02-11T16:38:45.759Z,8.47
2023-02-11T16:41:13.238Z,8.48
2023-02-11T16:43:40.740Z,8.43
2023-02-11T16:46:09.143Z,8.42
2023-02-11T16:48:36.666Z,8.50
2023-02-11T16:51:04.480Z,8.61
2023-02-11T16:53:32.194Z,8.64
2023-02-11T16:56:01.238Z,8.40
2023-02-11T16:58:28.702Z,8.40
2023-02-11T17:00:57.880Z,8.33
2023-02-11T17:03:29.586Z,8.31
2023-02-11T17:05:57.448Z,8.33
2023-02-11T17:08:24.888Z,8.28
2023-02-11T17:13:36.770Z,8.23
2023-02-11T17:16:04.328Z,8.32
2023-02-11T17:21:20.239Z,8.20
2023-02-11T17:23:47.657Z,8.24
2023-02-11T17:26:15.152Z,8.18
2023-02-11T17:28:47.402Z,8.23
2023-02-11T17:31:14.962Z,8.17
2023-02-11T17:33:42.602Z,8.10
2023-02-11T17:36:11.226Z,8.14
2023-02-11T17:38:39.083Z,8.27
2023-02-11T17:41:09.631Z,8.10
2023-02-11T17:43:37.045Z,8.22
2023-02-11T17:46:08.523Z,8.40
2023-02-11T17:48:37.846Z,8.25
2023-02-11T17:51:05.585Z,8.24
2023-02-11T17:53:33.003Z,8.23
2023-02-11T17:56:06.130Z,8.34
2023-02-11T17:58:33.926Z,8.17
2023-02-11T18:03:53.615Z,8.70
2023-02-11T18:06:21.542Z,8.42
2023-02-11T18:08:49.078Z,8.52
2023-02-11T18:11:16.836Z,8.31
2023-02-11T18:13:44.914Z,8.28
2023-02-11T18:16:15.460Z,8.29
2023-02-11T18:18:43.275Z,8.44
2023-02-11T18:21:15.247Z,8.51
2023-02-11T18:23:42.742Z,8.34
2023-02-11T18:26:11.622Z,8.36
2023-02-11T18:28:39.311Z,8.38
2023-02-11T18:31:07.410Z,8.46
2023-02-11T18:33:35.537Z,8.46
2023-02-11T18:36:06.434Z,8.24
2023-02-11T18:38:35.258Z,8.44
2023-02-11T18:41:03.279Z,8.34
2023-02-11T18:43:31.636Z,8.34
2023-02-11T18:48:55.960Z,8.32
2023-02-11T18:51:23.674Z,8.33
2023-02-11T18:53:52.818Z,8.54
2023-02-11T18:56:21.944Z,8.38
2023-02-11T18:58:51.223Z,8.37
2023-02-11T19:01:20.672Z,8.47
2023-02-11T19:03:48.242Z,8.37
2023-02-11T19:06:17.307Z,8.31
2023-02-11T19:08:44.832Z,8.25
2023-02-11T19:11:15.990Z,8.29
2023-02-11T19:13:43.392Z,8.38
2023-02-11T19:16:12.352Z,8.39
2023-02-11T19:18:39.786Z,8.37
2023-02-11T19:21:08.663Z,8.33
2023-02-11T19:23:36.525Z,8.28
2023-02-11T19:26:06.222Z,8.24
2023-02-11T19:28:36.896Z,8.34
2023-02-11T19:31:08.402Z,8.37
2023-02-11T19:33:36.020Z,8.32
2023-02-11T19:36:05.406Z,8.40
2023-02-11T19:38:33.360Z,8.48
2023-02-11T19:41:00.873Z,8.53
2023-02-11T19:43:28.514Z,8.62
2023-02-11T19:45:57.503Z,8.58
2023-02-11T19:48:25.559Z,8.47
2023-02-11T19:50:53.243Z,8.28
2023-02-11T19:56:20.798Z,8.41
2023-02-11T19:58:48.491Z,8.42
2023-02-11T20:01:19.363Z,8.48
2023-02-11T20:03:50.172Z,8.55
2023-02-11T20:06:20.131Z,8.57
2023-02-11T20:08:47.647Z,8.47
2023-02-11T20:11:16.748Z,8.41
2023-02-11T20:13:44.567Z,8.45
2023-02-11T20:16:16.444Z,8.43
2023-02-11T20:21:49.006Z,8.47
2023-02-11T20:24:16.658Z,8.56
2023-02-11T20:26:45.082Z,8.69
2023-02-11T20:32:11.613Z,8.55
2023-02-11T20:34:39.124Z,8.51
2023-02-11T20:37:08.202Z,8.67
2023-02-11T20:39:37.150Z,8.41
2023-02-11T20:42:04.822Z,8.60
2023-02-11T20:44:32.269Z,8.47
2023-02-11T20:46:59.703Z,8.57
2023-02-11T20:49:28.191Z,8.46
2023-02-11T20:54:41.148Z,8.66
2023-02-11T20:57:08.552Z,8.78
2023-02-11T20:59:35.957Z,8.72
2023-02-11T21:02:03.831Z,8.66
2023-02-11T21:04:32.527Z,8.72
2023-02-11T21:07:02.689Z,8.74
2023-02-11T21:09:33.043Z,8.67
2023-02-11T21:15:07.445Z,8.78
2023-02-11T21:17:34.835Z,8.70
2023-02-11T21:20:02.264Z,8.66
2023-02-11T21:22:29.680Z,8.59
2023-02-11T21:24:57.113Z,8.53
2023-02-11T21:27:31.140Z,8.67
2023-02-11T21:33:02.023Z,8.49
2023-02-11T21:35:29.535Z,8.61
2023-02-11T21:37:56.981Z,8.71
2023-02-11T21:43:24.826Z,8.42
2023-02-11T21:45:52.480Z,8.41
2023-02-11T21:48:21.420Z,8.49
2023-02-11T21:50:49.480Z,8.39
2023-02-11T21:53:16.894Z,8.33
2023-02-11T21:55:44.494Z,8.43
2023-02-11T21:58:12.419Z,8.37
2023-02-11T22:03:45.231Z,8.35
2023-02-11T22:06:14.816Z,8.41
2023-02-11T22:08:42.483Z,8.48
2023-02-11T22:11:12.641Z,8.37
2023-02-11T22:16:42.290Z,8.33
2023-02-11T22:19:11.078Z,8.53
2023-02-11T22:24:30.315Z,8.48
2023-02-11T22:26:57.757Z,8.41
2023-02-11T22:29:25.163Z,8.61
2023-02-11T22:31:52.832Z,8.59
2023-02-11T22:37:28.060Z,8.38
2023-02-11T22:39:55.443Z,8.44
2023-02-11T22:42:23.369Z,8.47
2023-02-11T22:45:28.177Z,8.29
2023-02-11T22:47:55.622Z,8.41
2023-02-11T22:50:23.048Z,8.37
2023-02-11T22:52:51.760Z,8.40
2023-02-11T22:55:19.175Z,8.52
2023-02-11T22:57:46.606Z,8.47
2023-02-11T23:00:15.760Z,8.52
2023-02-11T23:02:43.242Z,8.47
2023-02-11T23:05:10.660Z,8.60
2023-02-11T23:07:38.160Z,8.56
2023-02-11T23:10:08.233Z,8.66
2023-02-11T23:12:35.663Z,8.70
2023-02-11T23:15:05.017Z,8.79
2023-02-11T23:17:32.723Z,8.72
2023-02-11T23:22:48.238Z,8.88
2023-02-11T23:25:17.256Z,8.73
2023-02-11T23:27:44.695Z,8.75
2023-02-11T23:30:13.205Z,8.40
2023-02-11T23:32:40.785Z,8.42
2023-02-11T23:35:08.606Z,8.70
2023-02-11T23:37:36.011Z,8.71
2023-02-11T23:40:03.421Z,8.53
2023-02-11T23:42:32.162Z,8.49
2023-02-11T23:44:59.643Z,8.29
2023-02-11T23:47:27.052Z,8.30
2023-02-11T23:49:54.453Z,8.64
2023-02-11T23:52:21.940Z,8.42
2023-02-11T23:54:49.374Z,8.57
2023-02-11T23:57:16.794Z,8.47
